Overview Statistics Trail Chart Weather Telemetry Raw packets
 

This is the latest recevied weather packets stored in our database for station/object DD6UBW. If no packets are shown the sender has not sent any weather packets the latest 10 day(s).

<< 11 12 13 14 15 16 17 >>
Time Temp. Humidity Pressure Rain* Wind** Luminosity Snow
1788022802 24.44° C 44% 1010.6 hPa 0 mm - - -
1788021001 25° C 44% 1010.6 hPa 0 mm - - -
1788019201 25.56° C 42% 1010.6 hPa 0 mm - - -
1788017400 25.56° C 41% 1010.6 hPa 0 mm - - -
1788015601 27.22° C 38% 1010.6 hPa 0 mm - - -
1788013800 26.11° C 39% 1010.6 hPa 0 mm - - -
1788012001 26.11° C 41% 1010.6 hPa 0 mm - - -
1788010214 26.67° C 41% 1010.6 hPa 0 mm - - -
1788008401 26.11° C 41% 1010.6 hPa 0 mm - - -
1788006601 26.11° C 44% 1010.6 hPa 0 mm - - -
1788004800 25° C 45% 1011.6 hPa 0 mm - - -
1788003002 23.89° C 47% 1011.6 hPa 0 mm - - -
1788001201 24.44° C 48% 1011.6 hPa 0 mm - - -
1787999401 23.33° C 52% 1011.6 hPa 0 mm - - -
1787997600 22.78° C 55% 1011.6 hPa 0 mm - - -
1787995802 21.67° C 59% 1011.6 hPa 0 mm - - -
1787994001 21.67° C 60% 1011.6 hPa 0 mm - - -
1787992200 21.11° C 61% 1011.6 hPa 0 mm - - -
1787990401 21.11° C 65% 1011.6 hPa 0 mm - - -
1787986801 18.89° C 73% 1010.6 hPa 0 mm - - -
1787985001 18.89° C 72% 1010.6 hPa 0 mm - - -
1787983202 18.33° C 71% 1010.6 hPa 0 mm - - -
1787981402 18.33° C 70% 1010.6 hPa 0 mm - - -
1787979602 18.33° C 70% 1010.6 hPa 0 mm - - -
1787977801 18.33° C 70% 1010.6 hPa 0 mm - - -

* Rain since midnight (hover to see other rain measurements)
** Current wind speed in m/s (hover to see current wind gust speed)